x

Patapsco, Md (44043) Weather Station

12:40pm - Wed 16th Apr 2014 All times are EDT. -4 hours from GMT.

  • Wind
    16mph, 22mph gusts
  • Air Temp 40°f
  • Sea Pressure 1032.1mb
  • Patapsco, Md
  • Patapsco, Md

More Historic Weather Station data

Upgrade to MSW Pro to gain access to the past 30 days of data for over 8000 Wavebouys and Weather Stations around the globe.

Join Pro

Comparision Forecast

View Surf forecast
   
Wed 04/16 12:40pm  -   -  16 22 mph 1032.1mb - 40f
12:30pm  -   -  16 20 mph 1032.3mb - 39f
12:20pm  -   -  16 25 mph 1032.1mb - 39f
12:10pm  -   -  16 27 mph 1032.1mb - 39f
12:00pm 1.6ft 2s 16 22 mph 1032.2mb 54f 39f
11:50am  -   -  18 25 mph 1032mb - 38f
11:40am  -   -  16 22 mph 1032.1mb - 38f
11:30am  -   -  18 25 mph 1032mb - 38f
11:20am  -   -  16 22 mph 1031.9mb - 38f
11:10am  -   -  16 22 mph 1031.7mb - 37f
11:00am 1.6ft 3s 18 25 mph 1031.5mb 54f 37f
10:50am  -   -  18 22 mph 1031.5mb - 37f
10:40am  -   -  18 22 mph 1031.3mb - 37f
10:30am  -   -  16 22 mph 1031.3mb - 37f
10:20am  -   -  16 22 mph 1031.2mb - 36f
10:10am  -   -  16 22 mph 1030.8mb - 37f
10:00am 1.6ft 2s 16 22 mph 1030.6mb 54f 36f
9:50am  -   -  16 22 mph 1030.5mb - 36f
9:40am  -   -  18 25 mph 1030.4mb - 36f
9:30am  -   -  18 25 mph 1030.1mb - 35f
9:20am  -   -  18 25 mph 1029.9mb - 36f
9:10am  -   -  18 25 mph 1029.5mb - 35f
9:00am 2ft 3s 20 25 mph 1029.2mb 54f 35f
8:50am  -   -  18 25 mph 1029mb - 35f
8:40am  -   -  22 29 mph 1028.7mb - 35f
8:30am  -   -  20 25 mph 1028.6mb - 35f
8:20am  -   -  20 25 mph 1028.3mb - 35f
8:10am  -   -  22 29 mph 1028.1mb - 35f
8:00am 1.6ft 3s 20 29 mph 1028.1mb 54f 35f
7:50am  -   -  22 27 mph 1027.8mb - 35f
7:40am  -   -  20 27 mph 1027.6mb - 35f
7:30am  -   -  22 27 mph 1027.3mb - 35f
7:20am  -   -  22 27 mph 1027mb - 35f
7:10am  -   -  20 27 mph 1026.8mb - 35f
7:00am 2ft 3s 20 29 mph 1026.5mb 54f 35f
6:50am  -   -  22 27 mph 1026.2mb - 35f
6:40am  -   -  22 29 mph 1025.9mb - 35f
6:30am  -   -  20 27 mph 1025.7mb - 35f
6:20am  -   -  20 27 mph 1025.5mb - 35f
6:10am  -   -  20 29 mph 1025.2mb - 35f
6:00am 2ft 3s 20 29 mph 1024.9mb 54f 35f
5:50am  -   -  22 29 mph 1024.7mb - 35f
5:40am  -   -  20 27 mph 1024.5mb - 35f
5:30am  -   -  22 29 mph 1024.1mb - 35f
5:20am  -   -  22 27 mph 1024mb - 35f
5:10am  -   -  22 29 mph 1023.7mb - 35f
5:00am 2.5ft 3s 22 29 mph 1023.6mb 54f 35f
4:50am  -   -  25 31 mph 1023.4mb - 35f
4:40am  -   -  22 29 mph 1023.1mb - 35f
4:30am  -   -  25 29 mph 1022.8mb - 36f
4:20am  -   -  22 29 mph 1022.8mb - 36f
4:10am  -   -  25 34 mph 1022.6mb - 36f
4:00am 2.5ft 3s 25 34 mph 1022.3mb 55f 36f
3:50am  -   -  22 31 mph 1022.2mb - 37f
3:40am  -   -  25 34 mph 1021.8mb - 37f
3:30am  -   -  25 31 mph 1021.4mb - 37f
3:20am  -   -  25 31 mph 1020.9mb - 37f
3:10am  -   -  25 34 mph 1020.5mb - 38f
3:00am 2.5ft 3s 25 34 mph 1020mb 55f 38f
2:50am  -   -  27 31 mph 1019.7mb - 38f
2:40am  -   -  22 29 mph 1019.7mb - 38f
2:30am  -   -  27 31 mph 1019.2mb - 39f
2:20am  -   -  27 36 mph 1019mb - 39f
2:10am  -   -  27 36 mph 1019mb - 39f
2:00am 2.5ft 3s 27 34 mph 1019.1mb 56f 40f
1:50am  -   -  27 36 mph 1018.7mb - 40f
1:40am  -   -  27 34 mph 1019.1mb - 40f
1:30am  -   -  27 34 mph 1019.1mb - 40f
1:20am  -   -  25 31 mph 1018.9mb - 40f
1:10am  -   -  25 31 mph 1018.2mb - 40f
1:00am 2.5ft 3s 27 31 mph 1018.3mb 57f 41f
12:50am  -   -  25 31 mph 1018.4mb - 41f
12:40am  -   -  25 31 mph 1018.2mb - 41f
12:30am  -   -  22 29 mph 1017.8mb - 41f
12:20am  -   -  25 31 mph 1018.1mb - 41f
12:10am  -   -  27 31 mph 1016.9mb - 41f
12:00am 2ft 2s 25 31 mph 1017.2mb 56f 41f
Tue 04/15 11:50pm  -   -  22 29 mph 1017mb - 41f
11:40pm  -   -  20 27 mph 1017.2mb - 41f
11:30pm  -   -  20 22 mph 1017.2mb - 40f
11:20pm  -   -  20 25 mph 1016.9mb - 40f
11:10pm  -   -  20 25 mph 1016.5mb - 40f
11:00pm 2ft 3s 20 22 mph 1016.5mb 56f 40f
10:50pm  -   -  20 25 mph 1016.4mb - 40f
10:40pm  -   -  20 25 mph 1016.3mb - 40f
10:30pm  -   -  20 27 mph 1016mb - 40f
10:20pm  -   -  22 27 mph 1016.3mb - 39f
10:10pm  -   -  25 34 mph 1016.1mb - 38f
10:00pm 2.5ft 3s 22 31 mph 1015.6mb 55f 38f
9:50pm  -   -  22 27 mph 1015.2mb - 39f
9:40pm  -   -  22 29 mph 1015.1mb - 39f
9:30pm  -   -  22 27 mph 1014.9mb - 39f
9:20pm  -   -  25 31 mph 1014.6mb - 39f
9:10pm  -   -  25 34 mph 1014.4mb - 39f
9:00pm 2.5ft 3s 27 31 mph 1014mb 55f 39f
8:50pm  -   -  25 34 mph 1013.3mb - 40f
8:40pm  -   -  27 34 mph 1013.4mb - 40f
8:30pm  -   -  29 38 mph 1013.1mb - 41f
8:20pm  -   -  29 36 mph 1012.9mb - 43f
8:10pm  -   -  25 34 mph 1012mb - 43f
8:00pm 2.5ft 3s 20 29 mph 1011.8mb 55f 44f
7:50pm  -   -  22 29 mph 1011.3mb - 44f
7:40pm  -   -  25 31 mph 1010.5mb - 44f
7:30pm  -   -  25 31 mph 1010.4mb - 45f
7:20pm  -   -  25 31 mph 1010.2mb - 45f
7:10pm  -   -  22 29 mph 1010mb - 45f
7:00pm 2.5ft 3s 25 31 mph 1009.6mb 55f 45f
6:50pm  -   -  25 29 mph 1009.9mb - 45f
6:40pm  -   -  22 29 mph 1009.2mb - 46f
6:30pm  -   -  25 31 mph 1008.8mb - 46f
6:20pm  -   -  25 31 mph 1008.6mb - 46f
6:10pm  -   -  20 29 mph 1008.8mb - 46f
6:00pm 2.5ft 3s 20 25 mph 1008.6mb 55f 46f
5:50pm  -   -  22 27 mph 1008.3mb - 46f
5:40pm  -   -  25 27 mph 1008mb - 47f
5:30pm  -   -  22 27 mph 1007.4mb - 47f
5:10pm  -   -  27 31 mph 1007.2mb - 47f
5:00pm 2.5ft 3s 27 34 mph 1006.6mb 55f 48f
4:50pm  -   -  31 36 mph 1006.2mb - 50f
4:40pm  -   -  31 40 mph 1006.1mb - 50f
4:30pm  -   -  25 31 mph 1005.7mb - 52f
4:20pm  -   -  25 29 mph 1005.5mb - 53f
4:10pm  -   -  20 25 mph 1005.2mb - 54f
4:00pm 2.5ft 3s 22 27 mph 1004.9mb 56f 54f
3:50pm  -   -  22 29 mph 1004.8mb - 54f
3:40pm  -   -  25 34 mph 1004.2mb - 55f
3:30pm  -   -  27 31 mph 1003.7mb - 55f
3:20pm  -   -  27 34 mph 1003.6mb - 55f
3:10pm  -   -  25 36 mph 1003.6mb - 55f
3:00pm 2.5ft 3s 20 29 mph 1003.6mb 56f 56f
2:50pm  -   -  22 27 mph 1003.2mb - 56f
2:40pm  -   -  25 29 mph 1002.6mb - 56f
2:30pm  -   -  27 36 mph 1002.1mb - 59f
2:20pm  -   -  22 29 mph 1001.1mb - 61f
2:10pm  -   -  25 31 mph 1000.5mb - 62f
2:00pm 2.5ft 3s 20 25 mph 1000.5mb 56f 61f
1:50pm  -   -  18 25 mph 1000.7mb - 60f
1:40pm  -   -  20 25 mph 1000.9mb - 60f
1:30pm  -   -  18 22 mph 1001mb - 60f
1:20pm  -   -  18 20 mph 1001.1mb - 60f
1:10pm  -   -  18 22 mph 1001.4mb - 60f
1:00pm 2ft 3s 18 20 mph 1001.6mb 55f 60f
12:50pm  -   -  16 20 mph 1001.7mb - 60f
12:40pm  -   -  13 18 mph 1001.7mb - 59f
12:30pm  -   -  11 16 mph 1001.6mb - 59f
12:20pm  -   -  13 16 mph 1001.8mb - 59f
12:10pm  -   -  13 16 mph 1002mb - 58f
12:00pm 1.6ft 3s 18 22 mph 1001.7mb 55f 59f
11:50am  -   -  18 22 mph 1001.6mb - 59f
11:40am  -   -  18 22 mph 1001.8mb - 59f
11:30am  -   -  22 27 mph 1002.3mb - 61f
11:20am  -   -  18 25 mph 1002.8mb - 61f
11:10am  -   -  20 25 mph 1002.9mb - 62f
11:00am 1.6ft 3s 16 20 mph 1003mb 55f 61f
10:50am  -   -  13 27 mph 1002.8mb - 59f
10:40am  -   -  9 11 mph 1003mb - 58f
10:30am  -   -  11 13 mph 1003.1mb - 58f
10:20am  -   -  11 13 mph 1003.4mb - 59f
10:10am  -   -  13 16 mph 1003.6mb - 59f
10:00am 2ft 3s 16 18 mph 1003.6mb 54f 59f
9:50am  -   -  18 20 mph 1003.5mb - 59f
9:40am  -   -  18 20 mph 1003.6mb - 59f
9:30am  -   -  18 20 mph 1003.7mb - 59f
9:20am  -   -  18 20 mph 1003.6mb - 59f
9:10am  -   -  18 22 mph 1003.5mb - 60f
9:00am 2.5ft 3s 20 25 mph 1003.5mb 55f 60f
8:50am  -   -  22 25 mph 1003.7mb - 60f
8:40am  -   -  20 25 mph 1003.8mb - 61f
8:30am  -   -  20 22 mph 1003.9mb - 60f
8:20am  -   -  18 22 mph 1004mb - 60f
8:10am  -   -  18 20 mph 1004.2mb - 60f
8:00am 2ft 3s 18 20 mph 1004.3mb 55f 60f
7:50am  -   -  16 20 mph 1004.5mb - 60f
7:40am  -   -  18 22 mph 1004.7mb - 60f
7:30am  -   -  16 20 mph 1004.8mb - 60f
7:20am  -   -  16 18 mph 1005mb - 60f
7:10am  -   -  13 16 mph 1005.3mb - 59f
7:00am 1.6ft 2s 13 18 mph 1005.5mb 56f 60f
6:50am  -   -  11 13 mph 1005.5mb - 59f
6:40am  -   -  13 16 mph 1005.7mb - 60f
6:30am  -   -  13 16 mph 1005.9mb - 59f
6:20am  -   -  11 13 mph 1005.8mb - 59f
6:10am  -   -  11
mph
1006mb - 59f
6:00am 1.3ft 2s 11
mph
1006mb 56f 58f
5:50am  -   -  11 13 mph 1006mb - 59f
5:40am  -   -  13
mph
1006.3mb - 59f
5:30am  -   -  11 13 mph 1006.4mb - 58f
5:20am  -   -  11 13 mph 1006.6mb - 58f
5:10am  -   -  11
mph
1006.7mb - 58f
5:00am 1.3ft 2s 11 13 mph 1006.8mb 55f 58f
4:50am  -   -  11 13 mph 1007mb - 58f
4:40am  -   -  11 13 mph 1006.9mb - 58f
4:30am  -   -  11 13 mph 1007.1mb - 58f
4:20am  -   -  11 13 mph 1007.3mb - 58f
4:10am  -   -  13 16 mph 1007.6mb - 59f
4:00am 1.6ft 2s 13 16 mph 1007.5mb 55f 58f
3:50am  -   -  13 16 mph 1007.6mb - 58f
3:40am  -   -  13 16 mph 1007.8mb - 59f
3:30am  -   -  16 18 mph 1008mb - 60f
3:20am  -   -  16 20 mph 1008.1mb - 60f
3:10am  -   -  16
mph
1008.2mb - 60f
3:00am 1.3ft 2s 16 18 mph 1008.3mb 55f 60f
2:50am  -   -  16 20 mph 1008.5mb - 60f
2:40am  -   -  18 22 mph 1008.7mb - 60f
2:30am  -   -  16 18 mph 1008.9mb - 60f
2:20am  -   -  16 18 mph 1009mb - 60f
2:10am  -   -  13 16 mph 1009.3mb - 59f
2:00am 1.6ft 3s 16 18 mph 1009.6mb 55f 59f
1:50am  -   -  20 22 mph 1009.8mb - 60f
1:40am  -   -  20 27 mph 1010mb - 60f
1:30am  -   -  13 18 mph 1010mb - 59f
1:20am  -   -  13 18 mph 1010.2mb - 59f
1:10am  -   -  16 18 mph 1010mb - 60f
1:00am 1.6ft 3s 13 18 mph 1009.7mb 55f 59f
12:50am  -   -  16 18 mph 1009.6mb - 59f
12:40am  -   -  16 18 mph 1009.9mb - 60f
12:30am  -   -  18 20 mph 1010.3mb - 60f
12:20am  -   -  18 22 mph 1010.5mb - 61f
12:10am  -   -  16 20 mph 1010.7mb - 61f
12:00am 1ft 2s 16 18 mph 1010.9mb 55f 60f
Mon 04/14 11:50pm  -   -  13 16 mph 1010.8mb - 59f
11:40pm  -   -  11 13 mph 1010.8mb - 58f
11:30pm  -   -  11 13 mph 1010.8mb - 58f
11:00pm 1ft 3s 11
mph
1010.9mb 55f 59f
10:50pm  -   -  11
mph
1011mb - 59f
10:40pm  -   -  11
mph
1011mb - 60f
10:30pm  -   -  11 13 mph 1011mb - 60f
10:20pm  -   -  11 13 mph 1011.2mb - 60f
10:10pm  -   -  11 13 mph 1011.4mb - 59f
10:00pm 1.6ft 3s 13 16 mph 1011.4mb 55f 60f
9:50pm  -   -  13 16 mph 1011.3mb - 60f
9:40pm  -   -  16 18 mph 1011.1mb - 60f
9:30pm  -   -  16 18 mph 1011.1mb - 60f
9:20pm  -   -  16 20 mph 1011.2mb - 60f
9:10pm  -   -  16 18 mph 1011.2mb - 60f
9:00pm 1ft 2s 11 13 mph 1011.3mb 55f 60f
8:50pm  -   -  11 13 mph 1011.2mb - 60f
8:40pm  -   -  11 13 mph 1011.3mb - 61f
8:30pm  -   -  13 16 mph 1011.4mb - 61f
8:20pm  -   -  13 16 mph 1011.2mb - 61f
8:10pm  -   -  13 16 mph 1011.1mb - 59f
8:00pm 1.3ft 2s 11 13 mph 1011.1mb 55f 60f
7:50pm  -   -  13 16 mph 1011.2mb - 60f
7:40pm  -   -  13 16 mph 1011.3mb - 61f
7:30pm  -   -  13 16 mph 1011.5mb - 61f
7:20pm  -   -  13
mph
1011.5mb - 61f
7:10pm  -   -  13 16 mph 1011.4mb - 62f
7:00pm 1.3ft 2s 13 16 mph 1011.5mb 55f 62f
6:50pm  -   -  13 16 mph 1011.5mb - 62f
6:40pm  -   -  11 13 mph 1011.5mb - 61f
6:30pm  -   -  11
mph
1011.6mb - 60f
6:20pm  -   -  9 11 mph 1011.7mb - 60f
6:10pm  -   -  11
mph
1011.7mb - 60f
6:00pm 1.6ft 2s 11
mph
1011.7mb 56f 60f
5:50pm  -   -  11 13 mph 1011.8mb - 61f
5:40pm  -   -  16 18 mph 1011.8mb - 64f
5:30pm  -   -  18 20 mph 1011.8mb - 64f
5:20pm  -   -  18 20 mph 1011.8mb - 64f
5:10pm  -   -  16 18 mph 1011.9mb - 63f
5:00pm 1.6ft 2s 13 18 mph 1012mb 55f 62f
4:50pm  -   -  11
mph
1012.1mb - 61f
4:40pm  -   -  11 13 mph 1012.4mb - 61f
4:30pm  -   -  13
mph
1012.5mb - 61f
4:20pm  -   -  11 13 mph 1012.7mb - 60f
4:10pm  -   -  11 13 mph 1012.9mb - 60f
4:00pm 1.6ft 3s 11 13 mph 1012.9mb 55f 61f
3:50pm  -   -  13 16 mph 1013mb - 62f
3:40pm  -   -  11 16 mph 1013.1mb - 61f
3:30pm  -   -  13 16 mph 1013.3mb - 61f
3:20pm  -   -  13 16 mph 1013.4mb - 61f
3:10pm  -   -  13 16 mph 1013.5mb - 61f
3:00pm 2ft 3s 13 16 mph 1013.6mb 55f 61f
2:50pm  -   -  13 16 mph 1013.7mb - 61f
2:40pm  -   -  16 18 mph 1013.7mb - 62f
2:30pm  -   -  16 20 mph 1013.7mb - 62f
2:20pm  -   -  16 18 mph 1013.8mb - 62f
2:10pm  -   -  16 18 mph 1013.9mb - 61f
2:00pm 1.6ft 3s 13 16 mph 1014.1mb 54f 61f
1:50pm  -   -  13 16 mph 1014.2mb - 61f
1:40pm  -   -  16 20 mph 1014.3mb - 61f
1:30pm  -   -  16 18 mph 1014.5mb - 61f
1:20pm  -   -  13 18 mph 1014.7mb - 61f
1:10pm  -   -  16 20 mph 1015mb - 61f
1:00pm 1.3ft 3s 16 20 mph 1015.2mb 54f 60f
12:50pm  -   -  13 16 mph 1015.4mb - 60f
12:40pm  -   -  16 18 mph 1015.6mb - 60f
12:30pm  -   -  18 20 mph 1015.7mb - 61f
12:20pm  -   -  16 18 mph 1015.9mb - 60f
12:10pm  -   -  18 20 mph 1015.9mb - 60f
12:00pm 1.6ft 3s 16 20 mph 1016mb 53f 59f
11:50am  -   -  18 22 mph 1016.1mb - 59f
11:40am  -   -  20 22 mph 1016.1mb - 59f
11:30am  -   -  20 25 mph 1016.2mb - 60f
11:20am  -   -  20 25 mph 1016.2mb - 60f
11:00am 1.3ft 2s 20 22 mph 1016mb 52f 59f
10:50am  -   -  18 22 mph 1016mb - 58f
10:40am  -   -  18 20 mph 1016mb - 58f
10:30am  -   -  18 20 mph 1016.2mb - 58f
10:20am  -   -  18 22 mph 1016.1mb - 58f
10:10am  -   -  20 22 mph 1016.1mb - 58f
10:00am 1.6ft 3s 18 22 mph 1016mb 52f 58f
9:50am  -   -  18 22 mph 1016mb - 58f
9:40am  -   -  18 20 mph 1016.2mb - 58f
9:30am  -   -  20 22 mph 1016mb - 58f
9:20am  -   -  20 22 mph 1016mb - 58f
9:10am  -   -  20 22 mph 1016.1mb - 58f
9:00am 1.6ft 2s 20 22 mph 1016.1mb 52f 58f
8:40am  -   -  18 20 mph 1016.1mb - 57f
8:30am  -   -  18 22 mph 1016.2mb - 57f
8:20am  -   -  18 20 mph 1016.1mb - 57f
8:10am  -   -  18 20 mph 1016.2mb - 57f
8:00am 1.6ft 2s 16 18 mph 1016.3mb 52f 57f
7:50am  -   -  16 18 mph 1016.3mb - 57f
7:40am  -   -  16 20 mph 1016.1mb - 57f
7:30am  -   -  16 18 mph 1016mb - 57f
7:20am  -   -  16 18 mph 1016mb - 57f
7:10am  -   -  16 20 mph 1016mb - 57f
7:00am 1.6ft 2s 16 18 mph 1015.9mb 53f 57f
6:50am  -   -  16 18 mph 1015.8mb - 57f
6:40am  -   -  16 18 mph 1015.7mb - 57f
6:30am  -   -  16 18 mph 1015.8mb - 57f
6:20am  -   -  16 18 mph 1015.8mb - 57f
6:10am  -   -  16 18 mph 1015.8mb - 57f
6:00am 1.6ft 2s 16 18 mph 1015.8mb 53f 57f
5:50am  -   -  16 18 mph 1015.8mb - 57f
5:40am  -   -  16 18 mph 1015.8mb - 57f
5:30am  -   -  16 20 mph 1015.8mb - 57f
5:20am  -   -  16 18 mph 1015.9mb - 57f
5:10am  -   -  16 20 mph 1015.9mb - 58f
5:00am 2ft 2s 16 18 mph 1016mb 53f 58f
4:50am  -   -  18 20 mph 1016mb - 58f
4:40am  -   -  18 20 mph 1016mb - 58f
4:30am  -   -  18 20 mph 1015.9mb - 59f
4:20am  -   -  18 20 mph 1015.9mb - 59f
4:10am  -   -  18 20 mph 1015.9mb - 59f
4:00am 1.6ft 3s 18
mph
1015.9mb 53f 59f
3:50am  -   -  16 20 mph 1016mb - 58f
3:40am  -   -  16 20 mph 1016mb - 59f
3:30am  -   -  16 18 mph 1016.1mb - 59f
3:20am  -   -  16 18 mph 1016.1mb - 59f
3:10am  -   -  16 18 mph 1016.2mb - 59f
3:00am 2ft 3s 16 18 mph 1016.3mb 53f 59f
2:40am  -   -  16 18 mph 1016.4mb - 59f
2:30am  -   -  16 18 mph 1016.5mb - 59f
2:10am  -   -  16 18 mph 1016.6mb - 58f
2:00am 2ft 3s 16 18 mph 1016.7mb 53f 58f
1:50am  -   -  16 18 mph 1016.8mb - 58f
1:40am  -   -  13 16 mph 1016.9mb - 58f
1:30am  -   -  13 18 mph 1017mb - 58f
1:20am  -   -  16 18 mph 1017mb - 59f
1:10am  -   -  16 20 mph 1017.1mb - 59f
1:00am 1.6ft 3s 16 18 mph 1017.1mb 53f 59f
12:50am  -   -  16 18 mph 1017.1mb - 59f
12:40am  -   -  16 18 mph 1017.1mb - 59f
12:30am  -   -  16 18 mph 1017mb - 59f
12:20am  -   -  16 18 mph 1017mb - 59f
12:10am  -   -  13 16 mph 1017mb - 58f
12:00am 1.3ft 3s 11 13 mph 1017mb 53f 58f
Sun 04/13 11:50pm  -   -  11 13 mph 1017mb - 58f
11:40pm  -   -  13 16 mph 1017mb - 58f
11:30pm  -   -  13 16 mph 1016.9mb - 58f
11:20pm  -   -  11 16 mph 1016.9mb - 58f
11:10pm  -   -  11 13 mph 1016.9mb - 58f
11:00pm 1ft 3s 11 13 mph 1017mb 53f 58f
10:50pm  -   -  9 11 mph 1017mb - 58f
10:40pm  -   -  9 11 mph 1017.2mb - 57f
10:30pm  -   -  9
mph
1017.2mb - 57f
10:20pm  -   -  9 11 mph 1017.2mb - 58f
10:10pm  -   -  11 13 mph 1017.1mb - 58f
10:00pm 1.3ft 2s 13 16 mph 1017.1mb 53f 58f
9:50pm  -   -  13 16 mph 1017.1mb - 59f
9:40pm  -   -  16
mph
1017.1mb - 59f
9:30pm  -   -  16 18 mph 1017.1mb - 60f
9:20pm  -   -  16 18 mph 1017.1mb - 60f
9:10pm  -   -  16 20 mph 1017.1mb - 60f
9:00pm 1.6ft 3s 16 18 mph 1017.1mb 54f 60f
8:50pm  -   -  16 18 mph 1017.2mb - 60f
8:40pm  -   -  16 18 mph 1017.2mb - 60f
8:30pm  -   -  16
mph
1017.2mb - 60f
8:20pm  -   -  13 16 mph 1017.2mb - 60f
8:10pm  -   -  16
mph
1017.1mb - 60f
8:00pm 2ft 3s 13 18 mph 1017mb 54f 60f
7:50pm  -   -  13 16 mph 1016.9mb - 61f
7:40pm  -   -  16 18 mph 1016.8mb - 61f
7:30pm  -   -  13 16 mph 1016.8mb - 61f
7:20pm  -   -  16 18 mph 1016.8mb - 62f
7:10pm  -   -  13 16 mph 1016.8mb - 61f
7:00pm 2ft 2s 11 13 mph 1016.7mb 54f 61f
6:50pm  -   -  13 16 mph 1016.7mb - 61f
6:40pm  -   -  11 13 mph 1016.7mb - 61f
6:30pm  -   -  13
mph
1016.6mb - 61f
6:20pm  -   -  13
mph
1016.6mb - 62f
6:10pm  -   -  13 16 mph 1016.6mb - 62f
6:00pm 1.6ft 2s 13 16 mph 1016.6mb 53f 62f
5:50pm  -   -  13 16 mph 1016.7mb - 62f
5:40pm  -   -  11 13 mph 1016.8mb - 61f
5:30pm  -   -  11
mph
1016.9mb - 61f
5:20pm  -   -  11 13 mph 1016.9mb - 62f
5:10pm  -   -  11 13 mph 1016.8mb - 62f
5:00pm 1.6ft 2s 11 13 mph 1016.9mb 53f 62f
4:50pm  -   -  11 13 mph 1016.9mb - 61f
4:40pm  -   -  11 13 mph 1016.9mb - 62f
4:30pm  -   -  11 13 mph 1017mb - 61f
4:20pm  -   -  11 13 mph 1017.1mb - 62f
4:10pm  -   -  13 16 mph 1017.1mb - 62f
4:00pm 1.6ft 2s 13
mph
1017.1mb 53f 62f
3:50pm  -   -  13 16 mph 1017.1mb - 62f
3:40pm  -   -  13 16 mph 1017.2mb - 62f
3:30pm  -   -  16
mph
1017.3mb - 62f
3:20pm  -   -  13 16 mph 1017.4mb - 62f
3:10pm  -   -  13 16 mph 1017.5mb - 61f
3:00pm 1.3ft 2s 13 16 mph 1017.7mb 53f 62f
2:50pm  -   -  11 13 mph 1018mb - 61f
2:40pm  -   -  11 13 mph 1018.1mb - 61f
2:30pm  -   -  11 13 mph 1018.2mb - 61f
2:20pm  -   -  11 13 mph 1018.4mb - 61f
2:10pm  -   -  11 13 mph 1018.5mb - 60f
2:00pm 0.7ft  -  11
mph
1018.6mb 53f 60f
1:50pm  -   -  9 11 mph 1018.8mb - 60f
1:40pm  -   -  9
mph
1018.9mb - 59f
1:30pm  -   -  7 9 mph 1019.1mb - 59f
1:20pm  -   -  7
mph
1019.3mb - 58f
1:10pm  -   -  9 11 mph 1019.4mb - 58f
1:00pm 1ft 2s 11 18 mph 1019.5mb 52f 59f
12:50pm  -   -  13 18 mph 1019.6mb - 59f
12:40pm  -   -  11 13 mph 1019.8mb - 60f
12:30pm  -   -  13 16 mph 1020mb - 60f
12:20pm  -   -  13
mph
1020.2mb - 60f
12:10pm  -   -  11 13 mph 1020.4mb - 60f
12:00pm 1ft 2s 9 11 mph 1020.6mb 53f 59f
11:50am  -   -  11
mph
1020.8mb - 59f
11:40am  -   -  11 13 mph 1020.9mb - 59f
11:30am  -   -  11 13 mph 1020.9mb - 59f
11:20am  -   -  13 16 mph 1021.1mb - 58f
11:10am  -   -  13 16 mph 1021.2mb - 58f
11:00am 1ft 2s 13 16 mph 1021.2mb 53f 58f
10:50am  -   -  13 16 mph 1021.2mb - 57f
10:40am  -   -  13 16 mph 1021.2mb - 57f
10:30am  -   -  13 16 mph 1021.3mb - 56f
10:20am  -   -  11 13 mph 1021.4mb - 56f
10:10am  -   -  9 11 mph 1021.4mb - 55f
10:00am 0.3ft  -  9
mph
1021.5mb 52f 55f
9:50am  -   -  9 11 mph 1021.6mb - 56f
9:40am  -   -  9
mph
1021.6mb - 56f
9:30am  -   -  9
mph
1021.7mb - 55f
9:20am  -   -  9 11 mph 1021.8mb - 55f
9:10am  -   -  11
mph
1021.8mb - 55f
9:00am  -   -  11
mph
1021.8mb 52f 55f
8:50am  -   -  11
mph
1021.8mb - 55f
8:40am  -   -  9
mph
1021.8mb - 54f
8:30am  -   -  7 9 mph 1021.8mb - 54f
8:20am  -   -  7
mph
1021.8mb - 55f
8:10am  -   -  7
mph
1021.8mb - 54f
8:00am 0.3ft  -  4 7 mph 1021.8mb 52f 54f
7:50am  -   -  4
mph
1021.8mb - 53f
7:40am  -   -  4
mph
1021.7mb - 53f
7:30am  -   -  4 7 mph 1021.7mb - 53f
7:20am  -   -  7
mph
1021.6mb - 53f
7:10am  -   -  7
mph
1021.5mb - 54f
7:00am 0.3ft  -  7
mph
1021.5mb 53f 53f
6:50am  -   -  7
mph
1021.4mb - 53f
6:40am  -   -  4 7 mph 1021.4mb - 52f
6:30am  -   -  2 4 mph 1021.4mb - 53f
6:20am  -   -  2
mph
1021.4mb - 53f
6:10am  -   -  2 4 mph 1021.3mb - 52f
6:00am 0.3ft  -  2
mph
1021.3mb 53f 52f
5:50am  -   -  2
mph
1021.2mb - 52f
5:40am  -   -  2
mph
1021.2mb - 52f
5:30am  -   -  2 4 mph 1021mb - 52f
5:20am  -   -  4
mph
1021mb - 52f
5:10am  -   -  4
mph
1021.1mb - 52f
5:00am 0.3ft  -  2
mph
1021.2mb 53f 52f
4:50am  -   -  2
mph
1021.3mb - 53f
4:40am  -   -  2
mph
1021.3mb - 53f
4:30am  -   -  2
mph
1021.4mb - 52f
4:20am  -   -  2
mph
1021.5mb - 52f
4:10am  -   -  2 4 mph 1021.5mb - 53f
4:00am 0.3ft  -  4
mph
1021.4mb 52f 53f
3:50am  -   -  4
mph
1021.4mb - 53f
3:40am  -   -  4
mph
1021.3mb - 53f
3:30am  -   -  4
mph
1021.4mb - 52f
3:20am  -   -  4
mph
1021.3mb - 52f
3:10am  -   -  4
mph
1021.3mb - 53f
3:00am 0.7ft  -  4
mph
1021.3mb 52f 53f
2:50am  -   -  4
mph
1021.3mb - 53f
2:40am  -   -  4
mph
1021.3mb - 53f
2:30am  -   -  4
mph
1021.4mb - 53f
2:20am  -   -  4 7 mph 1021.4mb - 53f
2:10am  -   -  4 7 mph 1021.5mb - 53f
2:00am 0.7ft  -  7
mph
1021.6mb 53f 54f
1:50am  -   -  7
mph
1021.8mb - 54f
1:40am  -   -  4 7 mph 1021.9mb - 53f
1:30am  -   -  4
mph
1022.1mb - 54f
1:20am  -   -  4 7 mph 1022.2mb - 54f
1:10am  -   -  7
mph
1022.2mb - 54f
1:00am 0.7ft  -  9
mph
1022.2mb 53f 54f
12:50am  -   -  9
mph
1022.3mb - 54f
12:40am  -   -  9 11 mph 1022.2mb - 55f
12:30am  -   -  11
mph
1022.2mb - 55f
12:20am  -   -  11
mph
1022.3mb - 55f
12:10am  -   -  9 11 mph 1022.4mb - 55f
12:00am 0.7ft  -  9 11 mph 1022.4mb 53f 55f
Sat 04/12 11:50pm  -   -  9 11 mph 1022.4mb - 56f
11:40pm  -   -  11
mph
1022.3mb - 56f
11:30pm  -   -  9
mph
1022.4mb - 56f
11:20pm  -   -  7 9 mph 1022.5mb - 56f
11:10pm  -   -  7
mph
1022.5mb - 56f
11:00pm 0.7ft  -  7
mph
1022.5mb 54f 56f
10:50pm  -   -  7 9 mph 1022.5mb - 56f
10:40pm  -   -  7
mph
1022.6mb - 56f
10:30pm  -   -  7
mph
1022.7mb - 57f
10:20pm  -   -  9
mph
1022.7mb - 57f
10:10pm  -   -  9 11 mph 1022.6mb - 58f
10:00pm 0.7ft  -  11
mph
1022.5mb 55f 58f
9:50pm  -   -  11 13 mph 1022.5mb - 59f
9:40pm  -   -  11 13 mph 1022.5mb - 58f
9:30pm  -   -  9 11 mph 1022.6mb - 58f
9:20pm  -   -  9 11 mph 1022.6mb - 59f
9:10pm  -   -  9 11 mph 1022.5mb - 59f
9:00pm 0.3ft  -  7 9 mph 1022.4mb 56f 58f
8:50pm  -   -  9
mph
1022.3mb - 59f
8:40pm  -   -  9
mph
1022.2mb - 59f
8:30pm  -   -  9 11 mph 1022.1mb - 60f
8:20pm  -   -  9
mph
1022.2mb - 59f
8:10pm  -   -  7 9 mph 1022.3mb - 59f
8:00pm 0.3ft  -  9 11 mph 1022.1mb 58f 60f
7:50pm  -   -  9 11 mph 1022.1mb - 61f
7:40pm  -   -  9 11 mph 1022.1mb - 62f
7:30pm  -   -  9 11 mph 1022.2mb - 63f
7:20pm  -   -  9 11 mph 1022.2mb - 63f
7:10pm  -   -  9
mph
1022.2mb - 64f
7:00pm 0.3ft  -  9 11 mph 1022.2mb 58f 64f
6:50pm  -   -  9 11 mph 1022.2mb - 65f
6:40pm  -   -  9 11 mph 1022.3mb - 64f
6:30pm  -   -  9
mph
1022.4mb - 64f
6:20pm  -   -  7 9 mph 1022.5mb - 64f
6:10pm  -   -  7
mph
1022.4mb - 64f
6:00pm 0.3ft  -  7
mph
1022.3mb 56f 64f
5:50pm  -   -  7 9 mph 1022.3mb - 64f
5:40pm  -   -  7
mph
1022.2mb - 65f
5:30pm  -   -  7 9 mph 1022.1mb - 65f